In Rescue
 
Open Full Screen Window  High Contrast Mode
Wind Gusting 00 knots
06
June 18, 2019 11:03 AM CDT
Weather Information
Wind Direction
  330 °
Wind Speed
  06 kt (7 mph)
Wind Gust
  00 kt (0 mph)
Altimeter
30.01 in
Visibility
10 SM
Temperature
17° C
63° F
Dewpoint
13° C
55° F
Humidity
77%
1hr Rain Fall
00.00 in.
24hr Rain Fall
00.00 in.
Sky Condition
Overcast @ 2,100 ft
MVFR

METAR KY63 181603Z AUTO 33006KT 10SM OVC021 17/13 A3001 RMK AO2 T01710130

FAA Disclaimer: The data displayed is for advisory purposes only and is not to be used for flight planning or operations.